createdAt,value
2018-08-30T00:02:18.668Z,16.78
2018-08-30T00:04:49.929Z,16.60
2018-08-30T00:07:18.127Z,16.54
2018-08-30T00:09:46.471Z,16.50
2018-08-30T00:12:14.746Z,16.32
2018-08-30T00:14:43.105Z,16.29
2018-08-30T00:17:11.630Z,16.30
2018-08-30T00:19:39.886Z,16.35
2018-08-30T00:22:08.657Z,16.25
2018-08-30T00:24:37.071Z,16.29
2018-08-30T00:27:05.597Z,16.29
2018-08-30T00:29:34.281Z,16.27
2018-08-30T00:32:02.877Z,16.19
2018-08-30T00:34:31.353Z,16.16
2018-08-30T00:36:59.659Z,16.10
2018-08-30T00:39:27.894Z,16.12
2018-08-30T00:41:56.179Z,16.10
2018-08-30T00:44:24.410Z,16.05
2018-08-30T00:46:52.624Z,15.97
2018-08-30T00:49:20.903Z,15.97
2018-08-30T00:51:49.197Z,15.95
2018-08-30T00:54:17.383Z,15.90
2018-08-30T00:56:45.647Z,15.90
2018-08-30T00:59:13.804Z,15.93
2018-08-30T01:01:42.129Z,15.88
2018-08-30T01:04:10.445Z,15.82
2018-08-30T01:06:38.833Z,15.76
2018-08-30T01:09:08.050Z,15.79
2018-08-30T01:11:36.518Z,15.75
2018-08-30T01:14:04.745Z,15.68
2018-08-30T01:16:33.242Z,15.73
2018-08-30T01:19:01.368Z,15.77
2018-08-30T01:21:31.693Z,15.82
2018-08-30T01:23:59.990Z,15.84
2018-08-30T01:26:28.057Z,15.78
2018-08-30T01:28:56.424Z,15.81
2018-08-30T01:31:24.781Z,15.79
2018-08-30T01:33:53.024Z,15.79
2018-08-30T01:36:21.341Z,15.77
2018-08-30T01:38:49.687Z,15.76
2018-08-30T01:41:17.864Z,15.70
2018-08-30T01:43:46.114Z,15.70
2018-08-30T01:46:14.269Z,15.73
2018-08-30T01:48:42.659Z,15.65
2018-08-30T01:51:10.790Z,15.70
2018-08-30T01:53:39.076Z,15.60
2018-08-30T01:56:07.374Z,15.52
2018-08-30T01:58:35.552Z,15.47
2018-08-30T02:01:03.744Z,15.46
2018-08-30T02:03:31.799Z,15.36
2018-08-30T02:05:59.877Z,15.29
2018-08-30T02:08:28.061Z,15.36
2018-08-30T02:10:56.453Z,15.29
2018-08-30T02:13:24.935Z,15.34
2018-08-30T02:15:53.381Z,15.29
2018-08-30T02:18:21.517Z,15.35
2018-08-30T02:20:49.934Z,15.22
2018-08-30T02:23:18.437Z,15.38
2018-08-30T02:25:47.173Z,15.34
2018-08-30T02:28:15.704Z,15.41
2018-08-30T02:30:44.145Z,15.41
2018-08-30T02:33:12.660Z,15.47
2018-08-30T02:35:41.702Z,15.44
2018-08-30T02:38:09.656Z,15.43
2018-08-30T02:40:38.428Z,15.47
2018-08-30T02:43:06.986Z,15.39
2018-08-30T02:45:35.525Z,15.39
2018-08-30T02:48:03.989Z,15.41
2018-08-30T02:50:32.108Z,15.41
2018-08-30T02:53:00.440Z,15.39
2018-08-30T02:55:28.626Z,15.40
2018-08-30T02:57:56.865Z,15.39
2018-08-30T03:00:25.053Z,15.37
2018-08-30T03:02:53.325Z,15.45
2018-08-30T03:05:21.617Z,15.44
2018-08-30T03:07:50.068Z,15.39
2018-08-30T03:10:18.827Z,15.41
2018-08-30T03:12:47.825Z,15.43
2018-08-30T03:15:16.846Z,15.44
2018-08-30T03:17:45.461Z,15.46
2018-08-30T03:20:14.822Z,15.46
2018-08-30T03:22:43.553Z,15.44
2018-08-30T03:25:12.092Z,15.43
2018-08-30T03:27:40.546Z,15.45
2018-08-30T03:30:09.189Z,15.38
2018-08-30T03:32:37.388Z,15.37
2018-08-30T03:35:05.892Z,15.41
2018-08-30T03:37:34.043Z,15.37
2018-08-30T03:40:02.424Z,15.34
2018-08-30T03:42:30.615Z,15.25
2018-08-30T03:44:58.772Z,15.23
2018-08-30T03:47:26.927Z,15.19
2018-08-30T03:49:55.184Z,15.18
2018-08-30T03:52:23.425Z,15.18
2018-08-30T03:54:51.683Z,15.16
2018-08-30T03:57:19.791Z,15.13
2018-08-30T03:59:47.976Z,15.14
2018-08-30T04:02:16.219Z,15.08
2018-08-30T04:04:44.543Z,15.09
2018-08-30T04:07:12.739Z,15.10
2018-08-30T04:09:41.018Z,15.09
2018-08-30T04:12:09.237Z,15.09
2018-08-30T04:14:37.326Z,15.13
2018-08-30T04:17:05.677Z,15.06
2018-08-30T04:19:33.840Z,15.07
2018-08-30T04:22:02.017Z,15.05
2018-08-30T04:24:30.232Z,15.08
2018-08-30T04:26:58.471Z,15.07
2018-08-30T04:29:27.669Z,15.02
2018-08-30T04:31:55.888Z,15.06
2018-08-30T04:34:24.026Z,15.04
2018-08-30T04:36:52.193Z,15.05
2018-08-30T04:39:20.329Z,15.02
2018-08-30T04:41:49.133Z,15.06
2018-08-30T04:44:18.145Z,15.02
2018-08-30T04:46:47.358Z,15.03
2018-08-30T04:49:16.021Z,15.05
2018-08-30T04:51:45.048Z,15.09
2018-08-30T04:54:13.158Z,15.08
2018-08-30T04:56:41.458Z,15.08
2018-08-30T04:59:09.783Z,15.12
2018-08-30T05:01:38.141Z,15.11
2018-08-30T05:04:06.544Z,15.14
2018-08-30T05:06:35.185Z,15.14
2018-08-30T05:09:03.686Z,15.09
2018-08-30T05:11:31.945Z,15.09
2018-08-30T05:14:00.226Z,15.13
2018-08-30T05:16:28.449Z,15.15
2018-08-30T05:18:56.559Z,15.16
2018-08-30T05:21:24.693Z,15.22
2018-08-30T05:23:53.059Z,15.18
2018-08-30T05:26:21.465Z,15.20
2018-08-30T05:28:49.735Z,15.20
2018-08-30T05:31:17.975Z,15.26
2018-08-30T05:33:46.287Z,15.27
2018-08-30T05:36:14.625Z,15.28
2018-08-30T05:38:42.985Z,15.30
2018-08-30T05:41:11.368Z,15.40
2018-08-30T05:43:39.755Z,15.41
2018-08-30T05:46:08.201Z,15.41
2018-08-30T05:48:36.410Z,15.46
2018-08-30T05:51:04.662Z,15.46
2018-08-30T05:53:32.945Z,15.41
2018-08-30T05:56:09.045Z,15.41
2018-08-30T05:58:37.135Z,15.46
2018-08-30T06:01:05.330Z,15.45
2018-08-30T06:03:33.488Z,15.47
2018-08-30T06:06:07.675Z,15.44
2018-08-30T06:08:36.034Z,15.51
2018-08-30T06:11:05.005Z,15.56
2018-08-30T06:13:33.345Z,15.57
2018-08-30T06:16:16.043Z,15.60
2018-08-30T06:18:44.193Z,15.63
2018-08-30T06:21:12.595Z,15.76
2018-08-30T06:23:42.899Z,15.72
2018-08-30T06:26:11.659Z,15.70
2018-08-30T06:28:39.919Z,15.79
2018-08-30T06:31:24.721Z,15.82
2018-08-30T06:33:53.117Z,15.94
2018-08-30T06:36:21.504Z,16.01
2018-08-30T06:38:50.072Z,16.11
2018-08-30T06:44:04.952Z,16.15
2018-08-30T06:46:34.507Z,16.14
2018-08-30T06:49:03.563Z,16.23
2018-08-30T06:51:32.001Z,16.19
2018-08-30T06:54:00.454Z,16.30
2018-08-30T06:56:28.834Z,16.28
2018-08-30T06:58:57.066Z,16.50
2018-08-30T07:01:25.613Z,16.58
2018-08-30T07:03:55.030Z,16.69
2018-08-30T07:06:23.496Z,16.68
2018-08-30T07:08:51.859Z,16.67
2018-08-30T07:11:20.265Z,16.88
2018-08-30T07:13:48.745Z,16.97
2018-08-30T07:16:17.755Z,16.80
2018-08-30T07:18:46.209Z,17.01
2018-08-30T07:21:14.479Z,17.12
2018-08-30T07:23:42.905Z,17.10
2018-08-30T07:26:11.175Z,17.04
2018-08-30T07:28:39.955Z,16.93
2018-08-30T07:31:08.185Z,16.96
2018-08-30T07:33:36.769Z,16.90
2018-08-30T07:36:05.203Z,16.66
2018-08-30T07:38:33.561Z,16.52
2018-08-30T07:41:02.501Z,16.46
2018-08-30T07:43:31.261Z,16.29
2018-08-30T07:45:59.566Z,16.18
2018-08-30T07:48:27.797Z,16.23
2018-08-30T07:50:56.021Z,16.13
2018-08-30T07:53:24.467Z,16.11
2018-08-30T07:55:52.985Z,16.13
2018-08-30T07:58:21.325Z,16.24
2018-08-30T08:00:49.804Z,16.34
2018-08-30T08:03:19.444Z,16.48
2018-08-30T08:05:47.800Z,16.60
2018-08-30T08:08:16.308Z,16.69
2018-08-30T08:10:44.745Z,17.00
2018-08-30T08:13:13.223Z,17.12
2018-08-30T08:15:41.335Z,17.23
2018-08-30T08:18:09.574Z,17.28
2018-08-30T08:20:37.969Z,17.49
2018-08-30T08:23:06.139Z,17.50
2018-08-30T08:25:34.220Z,17.46
2018-08-30T08:28:02.436Z,17.35
2018-08-30T08:30:30.821Z,17.19
2018-08-30T08:33:01.108Z,17.35
2018-08-30T08:35:29.329Z,17.28
2018-08-30T08:37:57.742Z,17.23
2018-08-30T08:40:36.168Z,17.20
2018-08-30T08:43:04.388Z,17.42
2018-08-30T08:45:32.920Z,17.47
2018-08-30T08:48:01.225Z,17.59
2018-08-30T08:50:29.417Z,17.53
2018-08-30T08:52:57.586Z,17.62
2018-08-30T08:55:26.146Z,17.68
2018-08-30T08:57:54.361Z,17.76
2018-08-30T09:00:23.535Z,17.78
2018-08-30T09:02:51.815Z,17.60
2018-08-30T09:05:20.120Z,17.42
2018-08-30T09:07:48.363Z,17.59
2018-08-30T09:10:16.894Z,17.69
2018-08-30T09:12:45.294Z,18.08
2018-08-30T09:15:13.634Z,18.29
2018-08-30T09:17:42.005Z,18.69
2018-08-30T10:14:10.689Z,20.76
2018-08-30T10:16:39.050Z,20.67
2018-08-30T10:19:31.487Z,20.55
2018-08-30T10:21:59.605Z,20.29
2018-08-30T10:24:28.465Z,20.22
2018-08-30T10:29:50.047Z,19.86
2018-08-30T10:32:58.665Z,19.65
2018-08-30T10:35:26.670Z,19.81
2018-08-30T10:37:54.907Z,20.07
2018-08-30T10:40:23.430Z,20.27
2018-08-30T10:42:51.801Z,20.37
2018-08-30T10:45:21.517Z,20.63
2018-08-30T10:47:49.646Z,21.03
2018-08-30T10:50:21.137Z,21.06
2018-08-30T10:52:49.156Z,20.66
2018-08-30T10:55:21.964Z,20.36
2018-08-30T10:57:49.935Z,20.26
2018-08-30T11:00:18.364Z,19.79
2018-08-30T11:02:46.397Z,20.68
2018-08-30T11:05:14.513Z,21.86
2018-08-30T11:07:42.814Z,22.57
2018-08-30T11:10:11.303Z,22.24
2018-08-30T11:12:40.412Z,21.82
2018-08-30T11:15:08.573Z,22.06
2018-08-30T11:17:36.612Z,22.04
2018-08-30T11:20:04.878Z,22.67
2018-08-30T11:22:33.616Z,22.65
2018-08-30T11:25:01.959Z,21.92
2018-08-30T11:27:30.831Z,21.27
2018-08-30T11:29:58.791Z,21.04
2018-08-30T11:32:26.837Z,21.55
2018-08-30T11:34:54.794Z,22.00
2018-08-30T11:37:22.879Z,22.31
2018-08-30T11:39:50.839Z,22.04
2018-08-30T11:42:19.092Z,21.97
2018-08-30T12:17:47.227Z,22.42
2018-08-30T12:26:01.469Z,22.12
2018-08-30T12:28:29.791Z,21.81
2018-08-30T12:30:58.228Z,21.95
2018-08-30T12:36:19.516Z,22.45
2018-08-30T12:38:48.542Z,22.60
2018-08-30T12:41:25.485Z,22.34
2018-08-30T12:43:55.130Z,22.08
2018-08-30T12:46:23.144Z,21.84
2018-08-30T12:48:51.082Z,22.19
2018-08-30T13:08:33.377Z,20.86
2018-08-30T13:11:13.405Z,20.88
2018-08-30T15:53:41.015Z,18.29
2018-08-30T16:03:31.798Z,17.64
2018-08-30T16:09:24.401Z,17.14
2018-08-30T16:11:52.576Z,16.78
2018-08-30T16:20:08.190Z,16.37
2018-08-30T16:29:16.022Z,16.20
2018-08-30T16:32:50.406Z,16.14
2018-08-30T16:39:25.762Z,16.00
2018-08-30T16:47:53.296Z,16.19
2018-08-30T16:50:36.096Z,16.23
2018-08-30T17:04:55.166Z,16.27
2018-08-30T17:07:26.450Z,16.26
2018-08-30T17:10:00.071Z,16.37
2018-08-30T17:12:30.303Z,16.37
2018-08-30T17:42:04.604Z,16.38
2018-08-30T17:44:33.128Z,16.36
2018-08-30T17:47:02.155Z,16.41
2018-08-30T17:49:30.488Z,16.45
2018-08-30T17:51:59.236Z,16.47
2018-08-30T17:54:27.807Z,16.50
2018-08-30T17:56:56.636Z,16.45
2018-08-30T17:59:25.210Z,16.50
2018-08-30T18:01:54.055Z,16.45
2018-08-30T18:07:29.521Z,16.56
2018-08-30T18:09:58.008Z,16.51
2018-08-30T18:12:31.615Z,16.43
2018-08-30T18:15:16.696Z,16.44
2018-08-30T18:20:39.145Z,16.43
2018-08-30T18:23:12.864Z,16.38
2018-08-30T18:25:41.744Z,16.41
2018-08-30T18:28:10.325Z,16.44
2018-08-30T18:30:38.942Z,16.39
2018-08-30T18:36:17.376Z,16.30
2018-08-30T18:38:52.159Z,16.30
2018-08-30T20:30:01.003Z,15.80
2018-08-30T20:32:29.981Z,15.78
2018-08-30T20:40:42.835Z,15.74
2018-08-30T20:43:12.295Z,15.79
2018-08-30T21:00:10.750Z,15.51
2018-08-30T21:08:31.417Z,15.11
2018-08-30T21:35:13.900Z,14.27
2018-08-30T21:37:42.242Z,14.21
2018-08-30T21:46:53.099Z,13.96
2018-08-30T21:49:31.099Z,13.82
2018-08-30T21:52:07.419Z,13.79
2018-08-30T21:54:52.139Z,13.71
2018-08-30T22:00:12.901Z,13.47
2018-08-30T22:02:41.021Z,13.43
2018-08-30T22:05:09.209Z,13.44
2018-08-30T22:07:37.364Z,13.29
2018-08-30T22:10:05.745Z,13.17
2018-08-30T22:12:33.827Z,13.23
2018-08-30T22:15:01.825Z,13.19
2018-08-30T22:17:29.887Z,13.06
2018-08-30T22:19:57.910Z,12.96
2018-08-30T22:22:25.965Z,12.94
2018-08-30T22:24:54.030Z,12.91
2018-08-30T22:34:15.005Z,12.72
2018-08-30T22:36:43.103Z,12.70
2018-08-30T22:39:12.174Z,12.71
2018-08-30T22:47:45.579Z,12.52
2018-08-30T22:50:13.361Z,12.49
2018-08-30T22:55:44.440Z,12.45
2018-08-30T22:58:12.623Z,12.44
2018-08-30T23:00:40.658Z,12.47
2018-08-30T23:03:08.796Z,12.35
2018-08-30T23:05:37.116Z,12.22
2018-08-30T23:08:05.496Z,12.28
2018-08-30T23:10:33.776Z,12.23
2018-08-30T23:13:01.939Z,12.11
2018-08-30T23:15:30.221Z,12.08
2018-08-30T23:17:58.491Z,12.05
2018-08-30T23:20:26.829Z,12.02
2018-08-30T23:22:54.826Z,12.01
2018-08-30T23:25:23.080Z,12.02
2018-08-30T23:27:51.251Z,11.95
2018-08-30T23:30:19.462Z,12.04
2018-08-30T23:32:47.504Z,12.03
2018-08-30T23:35:15.831Z,11.99
2018-08-30T23:37:43.951Z,11.95
2018-08-30T23:40:12.074Z,11.90
2018-08-30T23:42:40.104Z,11.85
2018-08-30T23:45:08.572Z,11.87
2018-08-30T23:47:36.559Z,11.80
2018-08-30T23:50:04.850Z,11.74
2018-08-30T23:52:32.917Z,11.71
2018-08-30T23:55:00.939Z,11.55
2018-08-30T23:57:28.979Z,11.45
